Time;durP1;ratioP1;P1;durP2;ratioP2;P2;SDS_P1;SDS_P2;PMS_P1;PMS_P2;Temp;Humidity;BMP_temperature;BMP_pressure;BME280_temperature;BME280_humidity;BME280_pressure;Samples;Min_cycle;Max_cycle;Signal;HPM_P1;HPM_P2
2023/12/07 00:00:55;;;;;;;;;;;11.90;42.90;;;12.18;45.51;100988.28;5073877;28;19924;-38
2023/12/07 00:03:23;;;;;;;;;;;12.00;43.00;;;12.21;45.37;100993.69;5074097;28;19935;-37
2023/12/07 00:05:51;;;;;;;;;;;12.00;42.90;;;12.12;45.69;100973.34;5074037;28;20350;-39
2023/12/07 00:08:19;;;;;;;;;;;12.00;42.90;;;12.20;45.52;100996.94;5073994;28;20299;-37
2023/12/07 00:10:47;;;;;;;;;;;12.00;42.90;;;12.21;46.26;100993.69;5073893;28;19929;-37
2023/12/07 00:13:15;;;;;;;;;;;12.00;42.90;;;12.24;45.67;100994.09;5073680;28;19925;-38
2023/12/07 00:15:43;;;;;;;;;;;12.00;42.80;;;12.24;46.06;100991.59;5073523;28;19928;-39
2023/12/07 00:18:13;;;;;;;;;;;12.00;42.80;;;12.27;45.54;100996.97;5073997;28;19924;-36
2023/12/07 00:20:40;;;;;;;;;;;12.10;42.80;;;12.29;45.77;101005.63;5073666;28;19924;-37
2023/12/07 00:23:08;;;;;;;;;;;12.10;42.80;;;12.27;45.61;101005.44;5073541;28;19928;-41
2023/12/07 00:25:36;;;;;;;;;;;12.10;42.80;;;12.28;45.13;101011.34;5073356;28;19968;-36
2023/12/07 00:28:05;;;;;;;;;;;12.10;42.70;;;12.28;45.34;101016.38;5073352;28;19928;-36
2023/12/07 00:30:33;;;;;;;;;;;12.10;42.70;;;12.30;45.65;101014.97;5073227;28;19967;-36
2023/12/07 00:33:01;;;;;;;;;;;12.10;42.80;;;12.28;46.09;101017.28;5073745;28;19929;-37
2023/12/07 00:35:30;;;;;;;;;;;12.10;42.70;;;12.30;44.89;101014.97;5073379;28;19924;-36
2023/12/07 00:37:58;;;;;;;;;;;12.10;42.70;;;12.28;45.00;101008.84;5065767;28;19928;-36
2023/12/07 00:40:26;;;;;;;;;;;12.10;42.70;;;12.34;45.72;101023.09;5073226;28;19947;-37
2023/12/07 00:42:54;;;;;;;;;;;12.10;42.70;;;12.31;46.01;101021.81;5073290;28;19932;-38
2023/12/07 00:45:22;;;;;;;;;;;12.10;42.70;;;12.26;45.82;101016.22;5073190;28;19924;-37
2023/12/07 00:47:50;;;;;;;;;;;12.10;42.70;;;12.29;45.85;101029.16;5073133;28;19924;-38
2023/12/07 00:50:18;;;;;;;;;;;12.10;42.70;;;12.34;45.35;101037.28;5072917;28;19924;-38
2023/12/07 00:52:47;;;;;;;;;;;12.10;42.70;;;12.33;46.13;101030.47;5073178;28;19925;-36
2023/12/07 00:55:15;;;;;;;;;;;12.10;42.60;;;12.32;45.59;101038.72;5072630;28;19924;-37
2023/12/07 00:57:43;;;;;;;;;;;12.10;42.70;;;12.35;45.40;101039.09;5073027;28;19928;-36
2023/12/07 01:00:11;;;;;;;;;;;12.10;42.70;;;12.31;45.25;101041.91;5072973;28;19925;-37
2023/12/07 01:02:39;;;;;;;;;;;12.10;42.70;;;12.29;45.62;101038.28;5072856;28;19932;-37
2023/12/07 01:05:08;;;;;;;;;;;12.10;42.70;;;12.28;45.25;101036.47;5072544;28;20015;-36
2023/12/07 01:07:36;;;;;;;;;;;12.10;42.70;;;12.30;45.16;101041.00;5072738;28;19924;-38
2023/12/07 01:10:07;;;;;;;;;;;12.10;42.80;;;12.27;45.14;101039.69;5072438;28;19974;-37
2023/12/07 01:12:35;;;;;;;;;;;12.10;42.70;;;12.31;45.29;101046.94;5072667;28;19931;-37
2023/12/07 01:15:03;;;;;;;;;;;12.10;42.80;;;12.27;45.13;101037.19;5072496;28;19924;-36
2023/12/07 01:17:31;;;;;;;;;;;12.10;42.80;;;12.29;45.19;101045.84;5072653;28;20453;-37
2023/12/07 01:19:59;;;;;;;;;;;12.10;42.80;;;12.31;45.58;101046.94;5072312;28;20406;-36
2023/12/07 01:22:27;;;;;;;;;;;12.10;43.40;;;12.29;45.42;101043.31;5072403;28;19978;-36
2023/12/07 01:24:55;;;;;;;;;;;12.10;42.80;;;12.30;45.49;101045.13;5072366;28;20003;-37
2023/12/07 01:27:25;;;;;;;;;;;12.00;42.80;;;12.29;45.93;101039.19;5072432;28;19924;-37
2023/12/07 01:29:52;;;;;;;;;;;12.00;42.80;;;12.28;45.67;101031.47;5072345;28;20034;-38
2023/12/07 01:32:20;;;;;;;;;;;12.00;42.80;;;12.25;45.92;101038.63;5072360;28;19924;-38
2023/12/07 01:34:50;;;;;;;;;;;12.00;42.80;;;12.27;45.88;101039.69;5071793;28;19928;-36
2023/12/07 01:37:18;;;;;;;;;;;12.00;42.80;;;12.23;45.57;101038.41;5072458;28;20338;-36
2023/12/07 01:39:45;;;;;;;;;;;12.00;42.80;;;12.23;46.10;101043.44;5072243;28;19924;-36
2023/12/07 01:42:13;;;;;;;;;;;12.00;42.90;;;12.27;45.08;101047.22;5072235;28;19925;-36
2023/12/07 01:44:42;;;;;;;;;;;12.00;42.90;;;12.26;46.18;101047.97;5071959;28;19930;-36
2023/12/07 01:47:10;;;;;;;;;;;12.00;42.90;;;12.25;46.24;101051.19;5071893;28;19975;-36
2023/12/07 01:49:38;;;;;;;;;;;12.00;42.90;;;12.24;45.77;101055.28;5072034;28;19925;-36
2023/12/07 01:52:06;;;;;;;;;;;12.00;42.90;;;12.24;46.11;101059.41;5072279;28;19986;-36
2023/12/07 01:54:34;;;;;;;;;;;12.00;42.80;;;12.24;46.26;101059.41;5071897;28;19924;-36
2023/12/07 01:57:02;;;;;;;;;;;12.00;42.80;;;12.24;46.14;101059.41;5064161;28;19924;-36
2023/12/07 01:59:30;;;;;;;;;;;12.00;42.80;;;12.24;45.68;101060.31;5071906;28;20300;-36
2023/12/07 02:01:59;;;;;;;;;;;12.00;42.80;;;12.26;45.05;101068.06;5071794;28;19924;-36
2023/12/07 02:04:27;;;;;;;;;;;12.00;42.80;;;12.26;45.92;101068.06;5071879;28;19925;-38
2023/12/07 02:06:57;;;;;;;;;;;12.00;42.80;;;12.24;45.32;101065.34;5072145;28;19979;-39
2023/12/07 02:09:25;;;;;;;;;;;12.00;43.40;;;12.25;46.08;101071.28;5072192;28;20023;-36
2023/12/07 02:11:53;;;;;;;;;;;12.00;42.80;;;12.25;45.10;101071.28;5072027;28;19925;-36
2023/12/07 02:14:21;;;;;;;;;;;12.00;42.80;;;12.17;46.12;101056.81;5071535;28;19931;-37
2023/12/07 02:16:51;;;;;;;;;;;12.00;42.90;;;12.17;45.94;101061.84;5071667;28;20393;-38
2023/12/07 02:19:40;;;;;;;;;;;12.00;42.80;;;12.13;45.54;101054.63;5071768;28;19931;-37
2023/12/07 02:22:10;;;;;;;;;;;12.00;42.80;;;12.23;45.91;101077.69;5067860;28;19924;-36
2023/12/07 02:24:38;;;;;;;;;;;12.00;42.90;;;12.23;45.45;101077.69;5075411;28;19931;-37
2023/12/07 02:27:07;;;;;;;;;;;12.00;42.80;;;12.21;45.26;101079.09;5076090;28;19928;-37
2023/12/07 02:29:35;;;;;;;;;;;12.00;42.80;;;12.25;45.27;101087.25;5075684;28;19924;-36
2023/12/07 02:32:04;;;;;;;;;;;12.00;42.90;;;12.14;45.65;101071.50;5067771;28;19925;-36
2023/12/07 02:34:31;;;;;;;;;;;12.00;42.90;;;12.23;45.48;101082.72;5075309;28;20442;-39
2023/12/07 02:36:59;;;;;;;;;;;12.00;42.90;;;12.25;45.79;101086.34;5097597;22;20394;-35
2023/12/07 02:39:27;;;;;;;;;;;12.00;42.90;;;12.24;45.24;101089.56;5071609;28;20291;-36
2023/12/07 02:41:55;;;;;;;;;;;12.00;42.90;;;12.24;45.80;101089.56;5075078;28;19924;-36
2023/12/07 02:44:24;;;;;;;;;;;12.00;42.80;;;12.23;46.06;101087.75;5073713;28;20383;-36
2023/12/07 02:46:52;;;;;;;;;;;12.00;42.80;;;12.22;45.82;101085.94;5068059;28;19931;-36
2023/12/07 02:49:20;;;;;;;;;;;12.00;42.90;;;12.22;45.67;101090.97;5057290;28;19929;-35
2023/12/07 02:51:48;;;;;;;;;;;12.00;42.80;;;12.23;46.07;101082.72;5056591;28;19925;-35
2023/12/07 02:54:16;;;;;;;;;;;12.00;42.80;;;12.24;45.74;101094.59;5057261;28;19925;-37
2023/12/07 02:56:44;;;;;;;;;;;12.00;42.80;;;12.24;45.58;101097.09;5056876;28;19931;-35
2023/12/07 02:59:11;;;;;;;;;;;12.00;42.80;;;12.22;45.36;101090.97;5056703;28;20410;-36
2023/12/07 03:01:41;;;;;;;;;;;12.00;42.80;;;12.25;45.53;101086.34;5056421;28;19931;-36
2023/12/07 03:04:09;;;;;;;;;;;12.00;42.80;;;12.23;46.13;101097.81;5056688;28;19978;-36
2023/12/07 03:06:37;;;;;;;;;;;12.00;42.90;;;12.24;45.51;101089.56;5056909;28;19928;-35
2023/12/07 03:09:05;;;;;;;;;;;12.00;42.90;;;12.24;45.20;101087.06;5048974;28;20371;-36
2023/12/07 03:11:32;;;;;;;;;;;12.00;42.90;;;12.24;45.34;101084.53;5056617;28;20388;-36
2023/12/07 03:14:00;;;;;;;;;;;12.00;42.90;;;12.24;45.72;101089.56;5055906;28;19980;-35
2023/12/07 03:16:28;;;;;;;;;;;12.00;42.90;;;12.23;45.56;101092.78;5056389;28;19925;-36
2023/12/07 03:18:57;;;;;;;;;;;12.00;42.90;;;12.23;46.02;101097.81;5054791;28;19925;-35
2023/12/07 03:21:25;;;;;;;;;;;12.00;42.90;;;12.25;46.02;101091.38;5055186;28;20028;-36
2023/12/07 03:23:53;;;;;;;;;;;12.00;42.90;;;12.24;45.75;101089.56;5054668;28;19928;-36
2023/12/07 03:26:21;;;;;;;;;;;12.00;42.90;;;12.23;45.10;101092.78;5054916;28;20019;-36
2023/12/07 03:28:49;;;;;;;;;;;12.00;42.90;;;12.24;45.92;101094.59;5054653;28;20344;-36
2023/12/07 03:31:17;;;;;;;;;;;12.00;42.90;;;12.23;45.37;101090.25;5054720;28;19979;-35
2023/12/07 03:33:45;;;;;;;;;;;12.00;42.80;;;12.22;45.57;101086.84;5054675;28;19928;-36
2023/12/07 03:36:14;;;;;;;;;;;12.00;42.90;;;12.24;45.72;101089.56;5054447;28;19929;-36
2023/12/07 03:38:42;;;;;;;;;;;12.00;42.90;;;12.23;45.42;101095.28;5054379;28;19925;-36
2023/12/07 03:41:10;;;;;;;;;;;12.00;42.90;;;12.25;45.42;101083.84;5054679;28;19964;-36
2023/12/07 03:43:38;;;;;;;;;;;12.00;42.90;;;12.23;46.26;101087.75;5054540;28;20019;-36
2023/12/07 03:46:06;;;;;;;;;;;12.00;42.90;;;12.24;46.08;101094.59;5054329;28;19925;-36
2023/12/07 03:48:34;;;;;;;;;;;12.00;42.90;;;12.25;45.82;101096.41;5054594;28;19925;-36
2023/12/07 03:51:02;;;;;;;;;;;12.00;42.90;;;12.25;46.19;101091.38;5054360;28;19980;-36
2023/12/07 03:53:31;;;;;;;;;;;12.00;42.90;;;12.23;45.96;101095.28;5054193;28;19931;-36
2023/12/07 03:55:59;;;;;;;;;;;12.00;42.90;;;12.22;46.13;101090.97;5053922;28;20388;-36
2023/12/07 03:58:27;;;;;;;;;;;12.00;42.90;;;12.19;46.12;101085.56;5054122;28;20323;-36
2023/12/07 04:00:55;;;;;;;;;;;12.00;42.90;;;12.21;46.28;101094.19;5054045;28;19955;-36
2023/12/07 04:03:23;;;;;;;;;;;12.00;42.90;;;12.21;45.61;101096.69;5054317;28;19968;-35
2023/12/07 04:05:51;;;;;;;;;;;12.00;42.90;;;12.22;45.89;101085.94;5053949;28;20038;-36
2023/12/07 04:08:19;;;;;;;;;;;12.00;42.90;;;12.23;45.47;101087.75;5054236;28;19944;-35
2023/12/07 04:10:48;;;;;;;;;;;12.00;42.90;;;12.23;45.86;101087.75;5054141;28;19951;-36
2023/12/07 04:13:16;;;;;;;;;;;12.00;42.90;;;12.21;46.07;101094.19;5054300;28;19947;-36
2023/12/07 04:15:44;;;;;;;;;;;12.00;42.90;;;12.22;46.15;101091.88;5054020;28;19925;-35
2023/12/07 04:18:12;;;;;;;;;;;12.00;42.90;;;12.22;45.75;101090.97;5054216;28;20288;-36
2023/12/07 04:20:40;;;;;;;;;;;12.00;42.90;;;12.23;46.23;101082.72;5054247;28;19975;-36
2023/12/07 04:23:08;;;;;;;;;;;12.00;42.90;;;12.22;46.05;101090.97;5045854;28;19971;-35
2023/12/07 04:25:36;;;;;;;;;;;12.00;42.80;;;12.22;46.28;101096.00;5053550;28;19929;-35
2023/12/07 04:28:06;;;;;;;;;;;12.00;42.90;;;12.24;46.13;101094.59;5053877;28;19948;-36
2023/12/07 04:30:34;;;;;;;;;;;12.00;42.90;;;12.24;45.75;101084.53;5053602;28;19936;-35
2023/12/07 04:33:01;;;;;;;;;;;12.00;42.90;;;12.27;45.67;101089.94;5053565;28;19933;-36
2023/12/07 04:35:29;;;;;;;;;;;12.00;42.80;;;12.27;45.34;101084.91;5053479;28;19924;-36
2023/12/07 04:37:57;;;;;;;;;;;12.10;42.90;;;12.25;45.54;101101.44;5054281;28;19925;-35
2023/12/07 04:40:25;;;;;;;;;;;12.00;42.80;;;12.26;45.83;101104.16;5054449;28;20008;-36
2023/12/07 04:42:53;;;;;;;;;;;12.00;42.80;;;12.25;45.42;101096.41;5053680;28;19925;-36
2023/12/07 04:45:23;;;;;;;;;;;12.00;42.80;;;12.26;45.03;101099.13;5052953;28;19924;-36
2023/12/07 04:47:51;;;;;;;;;;;12.00;42.80;;;12.27;46.10;101102.50;5053274;28;19925;-36
2023/12/07 04:50:18;;;;;;;;;;;12.00;42.80;;;12.29;45.60;101098.59;5053303;28;19925;-36
2023/12/07 04:52:46;;;;;;;;;;;12.00;42.80;;;12.26;45.45;101098.22;5052968;28;19925;-35
2023/12/07 04:55:15;;;;;;;;;;;12.00;42.80;;;12.23;45.34;101100.31;5053226;28;19978;-36
2023/12/07 04:57:43;;;;;;;;;;;12.00;42.80;;;12.25;45.46;101096.41;5053175;28;19935;-35
2023/12/07 05:00:13;;;;;;;;;;;12.00;42.80;;;12.26;45.50;101103.25;5045004;28;20011;-35
2023/12/07 05:02:42;;;;;;;;;;;12.00;42.80;;;12.23;45.56;101102.81;5053144;28;19971;-35
2023/12/07 05:05:10;;;;;;;;;;;12.00;42.80;;;12.24;44.97;101099.63;5053495;28;20399;-35
2023/12/07 05:07:38;;;;;;;;;;;12.00;42.80;;;12.23;45.34;101102.81;5055627;28;19924;-38
2023/12/07 05:10:07;;;;;;;;;;;12.00;42.90;;;12.21;46.00;101099.19;5053085;28;20492;-36
2023/12/07 05:12:35;;;;;;;;;;;12.00;42.90;;;12.21;45.66;101100.09;5052847;28;20376;-36
2023/12/07 05:15:04;;;;;;;;;;;12.00;42.90;;;12.23;45.79;101107.84;5052976;28;19983;-36
2023/12/07 05:17:32;;;;;;;;;;;12.00;42.90;;;12.23;45.31;101103.72;5052896;28;19968;-35
2023/12/07 05:20:02;;;;;;;;;;;12.00;42.90;;;12.23;45.27;101102.81;5052587;28;19929;-35
2023/12/07 05:22:30;;;;;;;;;;;12.00;42.90;;;12.22;45.75;101096.00;5052900;28;19924;-35
2023/12/07 05:24:58;;;;;;;;;;;12.00;42.90;;;12.23;46.03;101100.31;5052875;28;20322;-35
2023/12/07 05:27:26;;;;;;;;;;;12.00;42.90;;;12.21;45.73;101105.13;5052415;28;19924;-35
2023/12/07 05:29:54;;;;;;;;;;;12.00;42.90;;;12.22;46.14;101106.03;5052538;28;19928;-35
2023/12/07 05:32:22;;;;;;;;;;;12.00;42.90;;;12.21;46.10;101109.25;5052553;28;19925;-35
2023/12/07 05:34:51;;;;;;;;;;;12.00;42.80;;;12.20;45.19;101113.41;5052129;28;19925;-35
2023/12/07 05:37:20;;;;;;;;;;;12.00;42.80;;;12.22;46.11;101111.97;5052295;28;20492;-35
2023/12/07 05:39:48;;;;;;;;;;;12.00;42.90;;;12.22;45.58;101111.06;5052352;28;19925;-35
2023/12/07 05:42:16;;;;;;;;;;;12.00;42.90;;;12.22;45.26;101118.59;5052926;28;19931;-35
2023/12/07 05:44:44;;;;;;;;;;;12.00;42.90;;;12.22;46.08;101117.00;5053954;28;19928;-35
2023/12/07 05:47:11;;;;;;;;;;;12.00;42.90;;;12.21;45.53;101122.72;5052586;28;19931;-35
2023/12/07 05:49:39;;;;;;;;;;;12.00;42.90;;;12.18;45.46;101128.97;5052569;28;20316;-35
2023/12/07 05:52:07;;;;;;;;;;;12.00;42.90;;;12.21;46.08;101131.84;5052464;28;19928;-35
2023/12/07 05:54:37;;;;;;;;;;;12.00;42.90;;;12.20;45.39;101132.59;5051915;28;19932;-35
2023/12/07 05:57:05;;;;;;;;;;;12.00;42.90;;;12.21;45.30;101129.34;5051375;28;19928;-35
2023/12/07 05:59:37;;;;;;;;;;;12.00;42.90;;;12.24;46.04;101124.75;5051811;28;20086;-35
2023/12/07 06:02:05;;;;;;;;;;;12.00;42.90;;;12.22;45.21;101131.16;5052570;28;19928;-35
2023/12/07 06:04:34;;;;;;;;;;;12.00;42.90;;;12.20;45.67;101117.53;5052807;28;19937;-35
2023/12/07 06:07:02;;;;;;;;;;;12.00;42.90;;;12.19;45.54;101120.72;5052643;28;19924;-35
2023/12/07 06:09:30;;;;;;;;;;;12.00;42.90;;;12.24;45.70;101124.75;5052436;28;19925;-35
2023/12/07 06:11:59;;;;;;;;;;;12.00;42.80;;;12.22;45.92;101126.13;5052077;28;19924;-45
2023/12/07 06:14:27;;;;;;;;;;;12.00;42.80;;;12.24;46.05;101124.75;5052291;28;19982;-35
2023/12/07 06:16:55;;;;;;;;;;;12.00;42.80;;;12.24;45.48;101124.75;5052065;28;19924;-35
2023/12/07 06:19:23;;;;;;;;;;;12.00;42.80;;;12.23;45.23;101127.94;5052415;28;19924;-35
2023/12/07 06:21:51;;;;;;;;;;;12.00;42.80;;;12.21;45.71;101126.84;5052012;28;20407;-35
2023/12/07 06:24:19;;;;;;;;;;;12.00;42.80;;;12.21;45.36;101126.84;5051768;28;19924;-35
2023/12/07 06:26:47;;;;;;;;;;;12.00;42.80;;;12.24;45.90;101129.75;5052032;28;19925;-35
2023/12/07 06:29:16;;;;;;;;;;;12.00;42.80;;;12.23;45.82;101122.94;5053005;28;20469;-35
2023/12/07 06:31:44;;;;;;;;;;;12.00;42.80;;;12.24;45.46;101134.78;5052133;28;19925;-35
2023/12/07 06:34:12;;;;;;;;;;;12.00;42.80;;;12.23;45.24;101135.50;5051854;28;20000;-36
2023/12/07 06:36:40;;;;;;;;;;;12.00;42.90;;;12.22;45.65;101137.09;5051678;28;19983;-36
2023/12/07 06:39:08;;;;;;;;;;;12.00;42.80;;;12.23;45.37;101138.00;5052229;28;20001;-36
2023/12/07 06:41:36;;;;;;;;;;;12.00;42.80;;;12.21;45.93;101141.91;5052410;28;19947;-36
2023/12/07 06:44:04;;;;;;;;;;;12.00;42.80;;;12.18;45.78;101149.97;5051622;28;19924;-36
2023/12/07 06:46:33;;;;;;;;;;;12.00;42.80;;;12.21;45.15;101155.38;5051777;28;20019;-36
2023/12/07 06:49:01;;;;;;;;;;;12.00;42.90;;;12.20;45.78;101157.72;5051640;28;19924;-36
2023/12/07 06:51:29;;;;;;;;;;;12.00;42.80;;;12.20;45.36;101157.72;5051744;28;20285;-36
2023/12/07 06:53:57;;;;;;;;;;;12.00;42.80;;;12.16;45.45;101151.38;5051841;28;19924;-36
2023/12/07 06:56:25;;;;;;;;;;;12.00;42.80;;;12.20;45.78;101158.63;5051457;28;19924;-36
2023/12/07 06:58:53;;;;;;;;;;;12.00;42.80;;;12.23;45.46;101168.16;5051469;28;20005;-36
2023/12/07 07:01:21;;;;;;;;;;;12.00;42.80;;;12.21;45.67;101169.53;5051358;28;19925;-36
2023/12/07 07:03:50;;;;;;;;;;;12.00;42.90;;;12.20;45.23;101170.28;5051086;28;20467;-36
2023/12/07 07:06:18;;;;;;;;;;;12.00;42.90;;;12.21;45.80;101169.53;5051631;28;19951;-36
2023/12/07 07:08:46;;;;;;;;;;;12.00;42.90;;;12.21;45.80;101169.53;5055315;28;19931;-36
2023/12/07 07:11:14;;;;;;;;;;;12.00;42.80;;;12.22;45.67;101176.38;5054886;28;19978;-37
2023/12/07 07:13:43;;;;;;;;;;;12.00;42.80;;;12.22;45.93;101171.34;5055099;28;19979;-36
2023/12/07 07:16:11;;;;;;;;;;;12.00;42.80;;;12.22;45.77;101176.38;5054891;28;19925;-36
2023/12/07 07:18:41;;;;;;;;;;;12.00;42.80;;;12.22;46.29;101171.34;5054308;28;20301;-35
2023/12/07 07:21:10;;;;;;;;;;;12.00;42.80;;;12.21;45.56;101177.09;5055210;28;19925;-36
2023/12/07 07:23:38;;;;;;;;;;;12.00;42.80;;;12.21;45.28;101174.56;5055311;28;20020;-36
2023/12/07 07:26:06;;;;;;;;;;;12.00;42.90;;;12.20;45.59;101177.81;5054708;28;19931;-36
2023/12/07 07:28:34;;;;;;;;;;;12.00;42.90;;;12.20;45.97;101182.84;5054964;28;20007;-36
2023/12/07 07:31:02;;;;;;;;;;;12.00;42.90;;;12.19;46.09;101169.38;5054965;28;20326;-36
2023/12/07 07:33:30;;;;;;;;;;;12.00;42.90;;;12.18;46.01;101169.16;5054544;28;19929;-36
2023/12/07 07:35:58;;;;;;;;;;;12.00;42.90;;;12.20;45.83;101173.69;5054511;28;19929;-36
2023/12/07 07:38:29;;;;;;;;;;;12.00;42.90;;;12.21;45.63;101170.44;5054490;28;20434;-35
2023/12/07 07:40:57;;;;;;;;;;;12.00;42.90;;;12.19;45.78;101170.97;5054185;28;19975;-36
2023/12/07 07:43:25;;;;;;;;;;;12.00;42.90;;;12.19;45.96;101171.88;5054270;28;19932;-36
2023/12/07 07:45:53;;;;;;;;;;;12.00;42.90;;;12.19;46.11;101160.94;5054478;28;19982;-36
2023/12/07 07:48:21;;;;;;;;;;;12.00;42.90;;;12.20;46.23;101161.13;5054576;28;19935;-36
2023/12/07 07:50:49;;;;;;;;;;;12.00;42.90;;;12.20;45.58;101168.66;5054287;28;19924;-36
2023/12/07 07:53:17;;;;;;;;;;;12.00;42.90;;;12.20;45.54;101167.75;5054017;28;19929;-35
2023/12/07 07:55:46;;;;;;;;;;;12.00;42.90;;;12.21;46.10;101159.50;5053999;28;19924;-36
2023/12/07 07:58:14;;;;;;;;;;;12.00;42.80;;;12.21;45.69;101160.41;5054063;28;19975;-36
2023/12/07 08:00:42;;;;;;;;;;;12.00;42.80;;;12.21;45.45;101159.50;5054470;28;19934;-36
2023/12/07 08:03:09;;;;;;;;;;;12.00;42.80;;;12.20;45.99;101157.72;5054139;28;20023;-36
2023/12/07 08:05:37;;;;;;;;;;;12.00;42.80;;;12.19;45.89;101156.81;5053985;28;19928;-36
2023/12/07 08:08:05;;;;;;;;;;;12.00;42.80;;;12.18;45.52;101157.50;5053949;28;19925;-35
2023/12/07 08:10:33;;;;;;;;;;;12.00;42.80;;;12.22;45.94;101171.34;5053758;28;19925;-36
2023/12/07 08:13:22;;;;;;;;;;;12.00;42.80;;;12.21;45.55;101175.47;5054039;28;19925;-36
2023/12/07 08:15:50;;;;;;;;;;;12.00;42.80;;;12.19;45.20;101170.97;5054106;28;19931;-36
2023/12/07 08:18:22;;;;;;;;;;;12.00;43.40;;;12.19;46.10;101176.00;5052958;28;19925;-36
2023/12/07 08:20:50;;;;;;;;;;;12.00;42.80;;;12.20;45.81;101175.31;5053893;28;19979;-36
2023/12/07 08:23:18;;;;;;;;;;;12.00;42.80;;;12.18;45.44;101174.19;5053410;28;19925;-35
2023/12/07 08:25:48;;;;;;;;;;;12.00;42.80;;;12.20;45.88;101175.31;5054268;28;19925;-36
2023/12/07 08:28:17;;;;;;;;;;;12.00;42.90;;;12.19;45.40;101181.03;5053563;28;19925;-36
2023/12/07 08:30:47;;;;;;;;;;;12.00;42.90;;;12.18;45.21;101175.09;5053772;28;19986;-36
2023/12/07 08:33:14;;;;;;;;;;;12.00;42.90;;;12.19;45.33;101165.94;5053365;28;19931;-35
2023/12/07 08:35:42;;;;;;;;;;;12.00;42.80;;;12.20;46.13;101163.66;5053018;28;19925;-35
2023/12/07 08:38:10;;;;;;;;;;;12.00;42.90;;;12.20;45.39;101158.63;5053964;28;20315;-35
2023/12/07 08:40:38;;;;;;;;;;;12.00;42.90;;;12.18;45.60;101160.03;5066789;22;20330;-36
2023/12/07 08:43:06;;;;;;;;;;;12.00;42.90;;;12.20;45.74;101162.75;5062881;28;19924;-37
2023/12/07 08:45:38;;;;;;;;;;;12.00;42.90;;;12.20;45.74;101157.72;5065229;28;19931;-35
2023/12/07 08:48:07;;;;;;;;;;;12.00;42.80;;;12.21;45.09;101159.50;5073527;28;19924;-30
2023/12/07 08:50:35;;;;;;;;;;;12.00;42.90;;;12.23;45.75;101163.13;5073341;28;20314;-33
2023/12/07 08:53:03;;;;;;;;;;;12.00;42.80;;;12.20;45.06;101158.63;5056573;28;19925;-32
2023/12/07 08:55:32;;;;;;;;;;;12.00;42.90;;;12.18;45.34;101165.03;5072835;28;19924;-31
2023/12/07 08:58:00;;;;;;;;;;;12.00;42.90;;;12.20;46.16;101162.75;5072848;28;19947;-33
2023/12/07 09:00:28;;;;;;;;;;;12.00;42.90;;;12.11;45.48;101147.34;5064336;28;19976;-31
2023/12/07 09:02:56;;;;;;;;;;;12.00;42.90;;;12.20;45.72;101165.25;5064922;28;20012;-33
2023/12/07 09:05:26;;;;;;;;;;;12.00;42.90;;;12.18;45.32;101154.09;5074071;28;19924;-30
2023/12/07 09:07:55;;;;;;;;;;;12.00;42.90;;;12.23;45.62;101163.13;5072992;28;19978;-31
2023/12/07 09:10:23;;;;;;;;;;;12.00;42.90;;;12.22;45.87;101161.31;5060842;28;19925;-31
2023/12/07 09:12:51;;;;;;;;;;;12.00;42.90;;;12.24;45.45;101169.97;5059852;28;19947;-31
2023/12/07 09:15:18;;;;;;;;;;;12.10;42.90;;;12.23;45.63;101164.03;5069664;28;20086;-31
2023/12/07 09:17:48;;;;;;;;;;;12.10;43.00;;;12.26;45.40;101168.56;5067555;28;20451;-31
2023/12/07 09:20:16;;;;;;;;;;;12.10;42.90;;;12.25;45.91;101171.78;5072423;28;19925;-31
2023/12/07 09:22:46;;;;;;;;;;;12.10;43.00;;;12.28;45.80;101178.09;5066463;28;20015;-31
2023/12/07 09:25:16;;;;;;;;;;;12.10;43.00;;;12.27;45.98;101177.88;5062245;28;20388;-33
2023/12/07 09:27:44;;;;;;;;;;;12.10;42.90;;;12.28;45.27;101174.69;5064014;28;19931;-32
2023/12/07 09:30:12;;;;;;;;;;;12.10;42.90;;;12.30;45.74;101180.81;5062245;28;19924;-33
2023/12/07 09:32:42;;;;;;;;;;;12.10;42.90;;;12.31;46.27;101187.66;5057921;28;20026;-32
2023/12/07 09:35:14;;;;;;;;;;;12.10;42.90;;;12.34;45.46;101183.00;5053728;28;19960;-33
2023/12/07 09:37:43;;;;;;;;;;;12.10;42.80;;;12.36;45.49;101186.66;5058235;28;19931;-32
2023/12/07 09:40:18;;;;;;;;;;;12.20;42.90;;;12.36;46.12;101186.66;5061643;28;20007;-31
2023/12/07 09:42:46;;;;;;;;;;;12.20;42.90;;;12.33;45.69;101181.22;5058362;28;19929;-33
2023/12/07 09:45:16;;;;;;;;;;;12.20;42.90;;;12.40;45.50;101182.22;5063383;28;19939;-33
2023/12/07 09:47:44;;;;;;;;;;;12.20;42.90;;;12.41;45.89;101185.63;5072067;28;19938;-33
2023/12/07 09:50:13;;;;;;;;;;;12.20;42.80;;;12.44;45.64;101183.53;5063610;28;20015;-32
2023/12/07 09:52:41;;;;;;;;;;;12.20;42.90;;;12.45;45.58;101187.88;5063463;28;20295;-31
2023/12/07 09:55:22;;;;;;;;;;;12.20;42.90;;;12.45;45.53;101187.88;5063210;28;19931;-32
2023/12/07 09:57:50;;;;;;;;;;;12.20;42.90;;;12.46;45.43;101184.63;5065478;28;19937;-37
2023/12/07 10:00:18;;;;;;;;;;;12.20;42.90;;;12.47;44.93;101176.38;5068405;28;20380;-35
2023/12/07 10:02:46;;;;;;;;;;;12.20;42.90;;;12.47;45.49;101176.38;5066367;28;19931;-32
2023/12/07 10:05:16;;;;;;;;;;;12.20;42.80;;;12.47;46.17;101168.84;5071272;28;19924;-33
2023/12/07 10:07:46;;;;;;;;;;;12.20;42.90;;;12.47;44.93;101166.31;5071878;28;19924;-30
2023/12/07 10:10:14;;;;;;;;;;;12.20;42.90;;;12.49;45.41;101164.94;5063732;28;20061;-35
2023/12/07 10:12:47;;;;;;;;;;;12.20;42.90;;;12.45;45.51;101145.13;5071812;28;20029;-30
2023/12/07 10:15:15;;;;;;;;;;;12.20;42.90;;;12.47;46.00;101151.25;5071324;28;19924;-33
2023/12/07 10:17:47;;;;;;;;;;;12.20;42.90;;;12.44;44.81;101150.88;5071644;28;20432;-31
2023/12/07 10:20:17;;;;;;;;;;;12.30;43.00;;;12.47;45.44;101162.22;5063495;28;19924;-34
2023/12/07 10:22:45;;;;;;;;;;;12.20;42.90;;;12.48;45.68;101153.06;5065998;28;19925;-33
2023/12/07 10:25:13;;;;;;;;;;;12.20;42.90;;;12.46;45.75;101146.91;5067816;28;19925;-32
2023/12/07 10:27:42;;;;;;;;;;;12.20;42.90;;;12.47;45.26;101141.19;5059843;28;19925;-30
2023/12/07 10:30:12;;;;;;;;;;;12.20;42.90;;;12.47;45.60;101131.13;5060901;28;19932;-30
2023/12/07 10:32:40;;;;;;;;;;;12.20;42.90;;;12.46;46.28;101129.31;5058502;28;20395;-31
2023/12/07 10:35:09;;;;;;;;;;;12.20;42.90;;;12.43;45.95;101113.88;5062354;28;20022;-36
2023/12/07 10:37:37;;;;;;;;;;;12.20;42.90;;;12.46;45.79;101114.25;5059023;28;20001;-32
2023/12/07 10:40:07;;;;;;;;;;;12.20;43.20;;;12.46;45.54;101119.28;5054620;28;19925;-32
2023/12/07 10:42:38;;;;;;;;;;;12.20;42.90;;;12.45;45.80;101120.91;5061706;28;19948;-33
2023/12/07 10:45:07;;;;;;;;;;;12.20;42.90;;;12.46;46.06;101124.31;5063589;28;19932;-31
2023/12/07 10:47:37;;;;;;;;;;;12.20;42.90;;;12.43;46.12;101106.31;5063818;28;20307;-36
2023/12/07 10:50:10;;;;;;;;;;;12.20;42.90;;;12.45;46.00;101107.44;5063621;28;19932;-33
2023/12/07 10:52:46;;;;;;;;;;;12.20;42.90;;;12.43;46.15;101109.75;5059826;28;20046;-31
2023/12/07 10:55:16;;;;;;;;;;;12.20;43.00;;;12.43;45.47;101108.84;5066527;28;19924;-31
2023/12/07 10:57:45;;;;;;;;;;;12.20;43.00;;;12.33;45.88;101085.75;5075066;28;20380;-31
2023/12/07 11:00:14;;;;;;;;;;;12.20;43.00;;;12.43;45.35;101101.31;5075008;28;19924;-31
2023/12/07 11:02:43;;;;;;;;;;;12.20;43.00;;;12.41;45.38;101097.66;5066882;28;19924;-31
2023/12/07 11:05:11;;;;;;;;;;;12.20;43.00;;;12.42;45.31;101091.94;5074444;28;20015;-32
2023/12/07 11:07:48;;;;;;;;;;;12.20;43.70;;;12.40;45.88;101090.84;5063662;28;20009;-30
2023/12/07 11:10:26;;;;;;;;;;;12.20;43.10;;;12.41;45.65;101090.13;5072901;28;19974;-30
2023/12/07 11:13:00;;;;;;;;;;;12.20;43.10;;;12.41;46.08;101090.13;5071916;28;19924;-32
2023/12/07 11:15:28;;;;;;;;;;;12.20;43.10;;;12.41;46.00;101095.16;5068197;28;19975;-30